createdAt,value
2022-07-26T00:00:46.436Z,32.93
2022-07-26T00:03:13.834Z,32.81
2022-07-26T00:05:41.449Z,33.32
2022-07-26T00:08:11.560Z,33.20
2022-07-26T00:10:39.676Z,33.12
2022-07-26T00:13:06.824Z,33.97
2022-07-26T00:15:33.918Z,34.26
2022-07-26T00:18:01.308Z,33.60
2022-07-26T00:20:28.437Z,33.55
2022-07-26T00:22:55.904Z,33.64
2022-07-26T00:25:23.366Z,33.38
2022-07-26T00:27:50.498Z,33.31
2022-07-26T00:30:17.693Z,33.18
2022-07-26T00:32:45.158Z,33.46
2022-07-26T00:35:12.333Z,33.34
2022-07-26T00:37:39.493Z,33.21
2022-07-26T00:40:07.167Z,32.87
2022-07-26T00:42:36.208Z,33.28
2022-07-26T00:45:03.626Z,33.17
2022-07-26T00:47:31.014Z,33.46
2022-07-26T00:49:58.130Z,34.23
2022-07-26T00:52:25.324Z,34.02
2022-07-26T00:54:54.538Z,33.99
2022-07-26T00:57:22.138Z,33.68
2022-07-26T00:59:49.228Z,33.51
2022-07-26T01:02:16.680Z,34.13
2022-07-26T01:04:46.860Z,33.72
2022-07-26T01:07:15.202Z,33.93
2022-07-26T01:09:43.275Z,34.20
2022-07-26T01:12:10.465Z,35.11
2022-07-26T01:14:37.575Z,34.25
2022-07-26T01:17:05.110Z,34.43
2022-07-26T01:19:32.297Z,34.56
2022-07-26T01:21:59.496Z,34.89
2022-07-26T01:24:26.885Z,34.17
2022-07-26T01:26:55.639Z,34.92
2022-07-26T01:29:23.332Z,35.17
2022-07-26T01:32:04.005Z,35.08
2022-07-26T01:34:31.254Z,34.75
2022-07-26T01:36:58.553Z,34.43
2022-07-26T01:39:25.941Z,34.51
2022-07-26T01:41:53.234Z,34.15
2022-07-26T01:44:20.351Z,35.20
2022-07-26T01:46:47.716Z,34.38
2022-07-26T01:49:15.042Z,34.71
2022-07-26T01:51:42.183Z,34.19
2022-07-26T01:54:10.099Z,34.04
2022-07-26T01:56:37.406Z,34.33
2022-07-26T01:59:04.545Z,34.54
2022-07-26T02:01:38.714Z,34.58
2022-07-26T02:04:08.443Z,34.50
2022-07-26T02:06:35.965Z,34.50
2022-07-26T02:09:05.274Z,34.45
2022-07-26T02:11:35.167Z,34.81
2022-07-26T02:14:02.536Z,34.51
2022-07-26T02:16:29.746Z,35.23
2022-07-26T02:18:57.116Z,35.36
2022-07-26T02:21:24.223Z,35.37
2022-07-26T02:23:51.329Z,35.16
2022-07-26T02:26:18.715Z,36.00
2022-07-26T02:28:45.897Z,36.23
2022-07-26T02:31:15.603Z,37.24
2022-07-26T02:33:43.162Z,36.52
2022-07-26T02:36:10.292Z,36.24
2022-07-26T02:38:37.493Z,36.01
2022-07-26T02:41:06.266Z,36.21
2022-07-26T02:43:33.448Z,36.00
2022-07-26T02:46:01.850Z,36.07
2022-07-26T02:48:30.479Z,35.52
2022-07-26T02:50:57.628Z,37.30
2022-07-26T02:53:24.761Z,37.61
2022-07-26T02:55:52.161Z,37.27
2022-07-26T02:58:21.568Z,36.53
2022-07-26T03:00:48.807Z,36.17
2022-07-26T03:03:16.237Z,36.28
2022-07-26T03:05:43.352Z,36.18
2022-07-26T03:08:10.599Z,35.59
2022-07-26T03:10:38.807Z,36.72
2022-07-26T03:13:05.905Z,36.30
2022-07-26T03:15:33.036Z,36.49
2022-07-26T03:18:00.587Z,36.33
2022-07-26T03:20:27.738Z,37.15
2022-07-26T03:22:54.832Z,38.61
2022-07-26T03:25:22.190Z,37.13
2022-07-26T03:27:49.324Z,36.95
2022-07-26T03:30:16.478Z,37.07
2022-07-26T03:32:51.989Z,37.17
2022-07-26T03:35:19.114Z,36.51
2022-07-26T03:37:46.760Z,36.29
2022-07-26T03:40:17.156Z,37.47
2022-07-26T03:42:44.582Z,36.88
2022-07-26T03:45:12.826Z,36.21
2022-07-26T03:47:40.251Z,36.22
2022-07-26T03:50:07.599Z,36.16
2022-07-26T03:52:34.707Z,36.17
2022-07-26T03:55:22.020Z,36.69
2022-07-26T03:57:49.315Z,36.07
2022-07-26T04:00:16.720Z,35.80
2022-07-26T04:02:44.158Z,35.99
2022-07-26T04:05:11.467Z,36.98
2022-07-26T04:07:42.530Z,38.02
2022-07-26T04:10:10.474Z,37.31
2022-07-26T04:12:38.017Z,36.29
2022-07-26T04:15:05.502Z,35.49
2022-07-26T04:17:42.051Z,37.01
2022-07-26T04:20:09.689Z,36.90
2022-07-26T04:22:37.246Z,36.37
2022-07-26T04:25:04.659Z,35.34
2022-07-26T04:27:31.862Z,35.14
2022-07-26T04:29:59.222Z,34.90
2022-07-26T04:32:26.357Z,34.25
2022-07-26T04:34:53.509Z,35.54
2022-07-26T04:37:20.882Z,37.13
2022-07-26T04:39:52.942Z,38.03
2022-07-26T04:42:22.302Z,40.43
2022-07-26T04:44:49.414Z,38.31
2022-07-26T04:47:16.527Z,36.14
2022-07-26T04:49:44.193Z,38.35
2022-07-26T04:52:11.338Z,36.85
2022-07-26T04:54:38.487Z,37.11
2022-07-26T04:57:05.868Z,36.65
2022-07-26T04:59:34.326Z,34.80
2022-07-26T05:02:01.587Z,33.74
2022-07-26T05:04:29.073Z,32.91
2022-07-26T05:07:02.293Z,31.62
2022-07-26T05:09:29.840Z,29.90
2022-07-26T05:11:56.962Z,28.25
2022-07-26T05:14:24.105Z,28.02
2022-07-26T05:16:51.516Z,28.40
2022-07-26T05:19:18.691Z,28.64
2022-07-26T05:21:45.806Z,26.74
2022-07-26T05:24:13.210Z,24.89
2022-07-26T05:26:40.335Z,26.98
2022-07-26T05:29:07.476Z,26.40
2022-07-26T05:31:34.863Z,26.98
2022-07-26T05:34:03.698Z,28.18
2022-07-26T05:36:30.842Z,26.56
2022-07-26T05:38:58.373Z,26.67
2022-07-26T05:41:25.523Z,25.71
2022-07-26T05:43:52.712Z,25.59
2022-07-26T05:46:20.363Z,24.82
2022-07-26T05:48:47.588Z,24.08
2022-07-26T05:51:14.874Z,26.76
2022-07-26T05:53:42.322Z,25.83
2022-07-26T05:56:09.452Z,25.06
2022-07-26T05:58:36.562Z,26.84
2022-07-26T06:01:03.932Z,26.44
2022-07-26T06:03:32.308Z,25.68
2022-07-26T06:05:59.405Z,26.75
2022-07-26T06:08:26.522Z,28.94
2022-07-26T06:10:54.367Z,28.78
2022-07-26T06:13:21.477Z,29.96
2022-07-26T06:15:48.613Z,31.87
2022-07-26T06:18:16.046Z,32.80
2022-07-26T06:20:43.612Z,32.57
2022-07-26T06:23:10.861Z,32.33
2022-07-26T06:25:38.282Z,31.18
2022-07-26T06:28:09.430Z,31.44
2022-07-26T06:30:36.845Z,34.18
2022-07-26T06:33:04.440Z,35.16
2022-07-26T06:35:32.145Z,36.60
2022-07-26T06:37:59.990Z,36.25
2022-07-26T06:40:27.509Z,39.07
2022-07-26T06:42:54.616Z,36.26
2022-07-26T06:45:21.763Z,37.63
2022-07-26T06:47:49.146Z,38.65
2022-07-26T06:50:16.262Z,36.34
2022-07-26T06:52:48.093Z,35.48
2022-07-26T06:55:15.517Z,34.82
2022-07-26T06:57:49.288Z,36.63
2022-07-26T07:00:17.999Z,37.52
2022-07-26T07:02:45.123Z,36.32
2022-07-26T07:05:12.330Z,36.98
2022-07-26T07:07:39.832Z,35.87
2022-07-26T07:10:09.523Z,32.82
2022-07-26T07:12:36.674Z,34.22
2022-07-26T07:15:04.171Z,33.63
2022-07-26T07:17:31.278Z,33.30
2022-07-26T07:19:58.422Z,32.71
2022-07-26T07:22:25.875Z,33.44
2022-07-26T07:24:52.982Z,32.86
2022-07-26T07:27:20.107Z,33.48
2022-07-26T07:29:48.357Z,32.56
2022-07-26T07:32:18.175Z,32.41
2022-07-26T07:34:47.599Z,33.13
2022-07-26T07:37:15.789Z,34.70
2022-07-26T07:39:42.916Z,33.37
2022-07-26T07:42:10.155Z,36.94
2022-07-26T07:44:37.512Z,35.78
2022-07-26T07:47:04.883Z,38.92
2022-07-26T07:49:32.172Z,36.60
2022-07-26T07:51:59.582Z,34.95
2022-07-26T07:54:27.311Z,37.37
2022-07-26T07:56:56.294Z,38.36
2022-07-26T07:59:23.818Z,35.70
2022-07-26T08:01:51.033Z,38.46
2022-07-26T08:04:18.568Z,38.50
2022-07-26T08:06:50.090Z,42.21
2022-07-26T08:09:19.214Z,41.58
2022-07-26T08:11:50.666Z,41.08
2022-07-26T08:14:19.001Z,40.23
2022-07-26T08:16:46.219Z,37.94
2022-07-26T08:19:13.947Z,37.63
2022-07-26T08:21:45.960Z,35.60
2022-07-26T08:24:14.170Z,35.66
2022-07-26T08:26:41.286Z,36.52
2022-07-26T08:29:08.692Z,38.88
2022-07-26T08:31:35.860Z,38.17
2022-07-26T08:34:03.047Z,34.76
2022-07-26T08:36:32.677Z,33.89
2022-07-26T08:39:00.691Z,32.03
2022-07-26T08:41:27.932Z,34.98
2022-07-26T08:43:55.446Z,32.71
2022-07-26T08:46:27.669Z,35.35
2022-07-26T08:48:55.805Z,34.67
2022-07-26T08:51:23.569Z,37.33
2022-07-26T08:53:51.426Z,36.33
2022-07-26T08:56:18.866Z,36.89
2022-07-26T08:58:46.050Z,35.24
2022-07-26T09:01:13.516Z,30.88
2022-07-26T09:03:41.457Z,34.76
2022-07-26T09:06:18.290Z,34.61
2022-07-26T09:08:46.537Z,37.29
2022-07-26T09:11:25.531Z,38.32
2022-07-26T09:13:55.036Z,36.82
2022-07-26T09:16:22.208Z,39.78
2022-07-26T09:18:49.450Z,42.08
2022-07-26T09:21:27.162Z,41.77
2022-07-26T09:23:55.594Z,40.18
2022-07-26T09:26:24.099Z,44.16
2022-07-26T09:29:04.681Z,45.00
2022-07-26T09:31:32.274Z,45.46
2022-07-26T09:34:00.140Z,45.87
2022-07-26T09:36:27.731Z,47.70
2022-07-26T09:38:57.841Z,47.51
2022-07-26T09:41:24.976Z,47.83
2022-07-26T09:43:54.129Z,49.16
2022-07-26T09:46:22.825Z,48.98
2022-07-26T09:49:10.109Z,52.00
2022-07-26T09:51:41.166Z,56.94
2022-07-26T09:54:09.252Z,61.19
2022-07-26T09:57:02.755Z,62.61
2022-07-26T09:59:30.334Z,65.16
2022-07-26T10:01:57.807Z,71.38
2022-07-26T10:04:25.408Z,75.50
2022-07-26T10:06:53.541Z,80.55
2022-07-26T10:09:20.731Z,84.87
2022-07-26T10:11:49.728Z,84.23
2022-07-26T10:14:35.236Z,88.23
2022-07-26T10:17:28.959Z,85.07
2022-07-26T10:20:04.602Z,85.21
2022-07-26T10:22:41.821Z,86.01
2022-07-26T10:25:17.772Z,87.41
2022-07-26T10:27:54.809Z,85.03
2022-07-26T10:30:31.588Z,84.49
2022-07-26T10:33:02.163Z,86.63
2022-07-26T10:35:29.245Z,84.21
2022-07-26T10:38:15.785Z,82.91
2022-07-26T10:40:56.414Z,80.83
2022-07-26T10:43:40.266Z,80.09
2022-07-26T10:46:20.836Z,81.77
2022-07-26T10:49:03.636Z,81.00
2022-07-26T10:51:35.027Z,80.13
2022-07-26T10:54:05.232Z,82.22
2022-07-26T10:56:33.676Z,79.94
2022-07-26T10:59:01.355Z,79.85
2022-07-26T11:01:34.821Z,78.00
2022-07-26T11:04:02.254Z,78.86
2022-07-26T11:06:32.377Z,76.64
2022-07-26T11:08:59.462Z,76.57
2022-07-26T11:11:27.852Z,76.94
2022-07-26T11:14:03.410Z,75.74
2022-07-26T11:16:36.059Z,73.80
2022-07-26T11:19:11.873Z,74.17
2022-07-26T11:21:41.202Z,75.01
2022-07-26T11:24:09.250Z,74.23
2022-07-26T11:26:43.034Z,74.74
2022-07-26T11:29:10.453Z,73.72
2022-07-26T11:31:49.412Z,74.21
2022-07-26T11:34:19.256Z,69.46
2022-07-26T11:36:46.617Z,70.52
2022-07-26T11:39:32.819Z,70.86
2022-07-26T11:42:10.345Z,71.33
2022-07-26T11:44:37.496Z,69.42
2022-07-26T11:47:19.638Z,70.60
2022-07-26T11:50:00.938Z,69.41
2022-07-26T11:52:34.572Z,66.63
2022-07-26T11:55:01.726Z,67.87
2022-07-26T11:57:29.400Z,66.05
2022-07-26T11:59:56.813Z,67.19
2022-07-26T12:02:23.935Z,69.08
2022-07-26T12:04:56.884Z,70.54
2022-07-26T12:07:24.255Z,72.43
2022-07-26T12:09:52.299Z,69.97
2022-07-26T12:12:23.364Z,66.93
2022-07-26T12:14:56.991Z,69.55
2022-07-26T12:17:24.389Z,67.88
2022-07-26T12:19:51.520Z,66.38
2022-07-26T12:22:21.750Z,66.80
2022-07-26T12:24:52.126Z,68.32
2022-07-26T12:27:20.407Z,67.56
2022-07-26T12:29:50.350Z,66.87
2022-07-26T12:32:37.953Z,66.88
2022-07-26T12:35:09.122Z,67.71
2022-07-26T12:37:45.782Z,68.62
2022-07-26T12:40:12.868Z,66.55
2022-07-26T12:42:40.919Z,66.27
2022-07-26T12:45:09.157Z,65.31
2022-07-26T12:47:36.617Z,64.87
2022-07-26T12:50:04.534Z,67.92
2022-07-26T12:52:31.722Z,68.15
2022-07-26T12:54:58.881Z,67.25
2022-07-26T12:57:27.244Z,70.59
2022-07-26T12:59:54.633Z,66.17
2022-07-26T13:02:21.742Z,67.58
2022-07-26T13:04:49.228Z,68.76
2022-07-26T13:07:16.886Z,67.81
2022-07-26T13:09:44.255Z,66.17
2022-07-26T13:12:11.737Z,63.68
2022-07-26T13:14:38.861Z,64.45
2022-07-26T13:17:06.110Z,64.54
2022-07-26T13:19:33.594Z,63.37
2022-07-26T13:22:01.031Z,62.39
2022-07-26T13:24:28.476Z,59.00
2022-07-26T13:26:56.750Z,59.68
2022-07-26T13:29:27.542Z,60.55
2022-07-26T13:31:55.800Z,61.31
2022-07-26T13:34:23.773Z,61.56
2022-07-26T13:36:50.895Z,60.08
2022-07-26T13:39:18.024Z,60.85
2022-07-26T13:41:45.733Z,58.03
2022-07-26T13:44:13.320Z,58.00
2022-07-26T13:46:42.219Z,58.42
2022-07-26T13:49:09.795Z,57.50
2022-07-26T13:51:55.912Z,57.93
2022-07-26T13:54:26.014Z,56.96
2022-07-26T13:56:53.470Z,56.75
2022-07-26T13:59:20.623Z,58.62
2022-07-26T14:01:48.093Z,57.31
2022-07-26T14:04:16.345Z,56.69
2022-07-26T14:06:43.698Z,56.75
2022-07-26T14:09:11.255Z,55.49
2022-07-26T14:11:38.750Z,53.75
2022-07-26T14:14:05.934Z,55.21
2022-07-26T14:16:33.396Z,56.44
2022-07-26T14:19:00.845Z,57.12
2022-07-26T14:21:28.383Z,56.62
2022-07-26T14:23:56.991Z,55.83
2022-07-26T14:26:24.500Z,55.18
2022-07-26T14:28:51.657Z,55.64
2022-07-26T14:31:18.804Z,53.36
2022-07-26T14:33:46.214Z,54.65
2022-07-26T14:36:13.683Z,56.90
2022-07-26T14:38:41.540Z,57.37
2022-07-26T14:41:09.238Z,58.29
2022-07-26T14:43:36.407Z,57.63
2022-07-26T14:46:04.056Z,57.29
2022-07-26T14:48:52.903Z,56.17
2022-07-26T14:51:18.574Z,55.48
2022-07-26T14:53:45.965Z,57.76
2022-07-26T14:56:13.117Z,57.25
2022-07-26T14:58:40.259Z,56.69
2022-07-26T15:01:07.754Z,54.00
2022-07-26T15:03:34.991Z,57.46
2022-07-26T15:06:02.151Z,57.75
2022-07-26T15:08:29.568Z,58.05
2022-07-26T15:10:56.756Z,58.81
2022-07-26T15:13:24.103Z,57.69
2022-07-26T15:15:51.495Z,57.87
2022-07-26T15:18:18.878Z,58.43
2022-07-26T15:20:46.048Z,57.18
2022-07-26T15:23:15.301Z,58.98
2022-07-26T15:25:42.437Z,59.21
2022-07-26T15:28:09.671Z,56.57
2022-07-26T15:30:39.221Z,56.55
2022-07-26T15:33:06.336Z,57.62
2022-07-26T15:35:35.252Z,58.66
2022-07-26T15:38:02.934Z,57.45
2022-07-26T15:40:30.046Z,55.53
2022-07-26T15:42:57.196Z,57.02
2022-07-26T15:45:24.922Z,55.93
2022-07-26T15:47:56.011Z,55.94
2022-07-26T15:50:25.012Z,55.65
2022-07-26T15:52:52.178Z,56.74
2022-07-26T15:55:19.381Z,56.71
2022-07-26T15:57:46.867Z,55.84
2022-07-26T16:00:14.215Z,55.49
2022-07-26T16:02:41.679Z,56.30
2022-07-26T16:05:09.098Z,56.77
2022-07-26T16:07:36.272Z,56.12
2022-07-26T16:10:04.017Z,55.76
2022-07-26T16:12:31.140Z,55.73
2022-07-26T16:14:58.284Z,54.95
2022-07-26T16:17:25.695Z,54.92
2022-07-26T16:19:53.503Z,55.63
2022-07-26T16:22:20.622Z,56.33
2022-07-26T16:24:48.078Z,55.64
2022-07-26T16:27:15.208Z,54.85
2022-07-26T16:29:42.399Z,54.91
2022-07-26T16:32:10.375Z,54.73
2022-07-26T16:34:37.526Z,54.72
2022-07-26T16:37:04.671Z,55.46
2022-07-26T16:39:32.069Z,56.02
2022-07-26T16:42:04.568Z,56.43
2022-07-26T16:44:36.031Z,55.59
2022-07-26T16:47:03.834Z,56.02
2022-07-26T16:49:31.221Z,56.16
2022-07-26T16:51:58.743Z,55.51
2022-07-26T16:54:25.845Z,56.10
2022-07-26T16:56:52.960Z,55.49
2022-07-26T16:59:20.507Z,55.49
2022-07-26T17:01:47.695Z,56.36
2022-07-26T17:04:16.114Z,56.80
2022-07-26T17:06:56.475Z,55.60
2022-07-26T17:09:30.898Z,52.62
2022-07-26T17:12:00.652Z,53.46
2022-07-26T17:14:31.440Z,53.88
2022-07-26T17:16:58.991Z,52.75
2022-07-26T17:19:26.219Z,53.77
2022-07-26T17:21:53.564Z,55.22
2022-07-26T17:24:20.947Z,55.56
2022-07-26T17:26:49.253Z,55.79
2022-07-26T17:29:17.774Z,57.67
2022-07-26T17:31:45.319Z,55.17
2022-07-26T17:34:12.505Z,55.76
2022-07-26T17:36:39.628Z,52.52
2022-07-26T17:39:15.002Z,54.65
2022-07-26T17:41:47.638Z,53.98
2022-07-26T17:44:15.146Z,55.27
2022-07-26T17:46:42.376Z,55.98
2022-07-26T17:49:09.907Z,54.55
2022-07-26T17:51:37.629Z,53.77
2022-07-26T17:54:04.829Z,53.07
2022-07-26T17:56:32.078Z,54.21
2022-07-26T17:58:59.468Z,52.75
2022-07-26T18:01:26.675Z,53.53
2022-07-26T18:03:54.102Z,52.37
2022-07-26T18:06:21.275Z,52.40
2022-07-26T18:08:48.369Z,53.08
2022-07-26T18:11:15.803Z,53.78
2022-07-26T18:13:42.984Z,52.59
2022-07-26T18:16:10.179Z,54.40
2022-07-26T18:18:37.605Z,53.74
2022-07-26T18:21:04.716Z,55.19
2022-07-26T18:23:31.910Z,53.96
2022-07-26T18:25:59.309Z,55.34
2022-07-26T18:28:26.417Z,54.56
2022-07-26T18:30:53.582Z,56.25
2022-07-26T18:33:21.025Z,54.37
2022-07-26T18:35:48.150Z,56.10
2022-07-26T18:38:15.347Z,56.33
2022-07-26T18:40:42.816Z,54.67
2022-07-26T18:43:10.076Z,56.47
2022-07-26T18:45:38.295Z,56.26
2022-07-26T18:48:05.781Z,57.49
2022-07-26T18:50:33.146Z,57.17
2022-07-26T18:53:02.417Z,59.01
2022-07-26T18:55:29.938Z,59.19
2022-07-26T18:57:57.213Z,57.96
2022-07-26T19:00:25.137Z,58.28
2022-07-26T19:02:54.147Z,57.89
2022-07-26T19:05:25.104Z,57.14
2022-07-26T19:07:52.481Z,56.97
2022-07-26T19:10:20.209Z,57.81
2022-07-26T19:12:48.481Z,56.67
2022-07-26T19:15:16.417Z,58.58
2022-07-26T19:17:43.562Z,58.16
2022-07-26T19:20:12.498Z,56.89
2022-07-26T19:22:40.020Z,57.24
2022-07-26T19:25:09.027Z,58.21
2022-07-26T19:27:36.430Z,61.02
2022-07-26T19:30:07.561Z,60.98
2022-07-26T19:32:34.733Z,60.11
2022-07-26T19:35:01.893Z,62.53
2022-07-26T19:37:29.279Z,63.42
2022-07-26T19:40:00.304Z,59.71
2022-07-26T19:42:28.788Z,62.35
2022-07-26T19:44:56.174Z,61.82
2022-07-26T19:47:23.653Z,62.05
2022-07-26T19:49:50.822Z,63.26
2022-07-26T19:52:18.322Z,63.40
2022-07-26T19:54:45.538Z,60.42
2022-07-26T19:57:12.798Z,62.01
2022-07-26T19:59:40.163Z,61.76
2022-07-26T20:02:07.412Z,63.01
2022-07-26T20:04:34.874Z,61.62
2022-07-26T20:07:02.662Z,61.72
2022-07-26T20:09:29.917Z,62.03
2022-07-26T20:11:57.892Z,63.11
2022-07-26T20:14:25.191Z,62.61
2022-07-26T20:16:56.172Z,61.46
2022-07-26T20:19:24.391Z,59.22
2022-07-26T20:21:51.529Z,58.60
2022-07-26T20:24:19.021Z,59.59
2022-07-26T20:26:46.490Z,59.46
2022-07-26T20:29:14.274Z,60.95
2022-07-26T20:31:41.680Z,59.13
2022-07-26T20:34:09.114Z,59.50
2022-07-26T20:36:36.256Z,59.66
2022-07-26T20:39:03.621Z,58.81
2022-07-26T20:41:33.787Z,61.73
2022-07-26T20:44:01.282Z,62.75
2022-07-26T20:46:28.497Z,63.01
2022-07-26T20:48:56.074Z,62.72
2022-07-26T20:51:23.347Z,64.32
2022-07-26T20:53:50.470Z,66.89
2022-07-26T20:56:17.941Z,64.87
2022-07-26T20:58:45.091Z,64.17
2022-07-26T21:01:12.356Z,64.24
2022-07-26T21:03:39.886Z,63.60
2022-07-26T21:06:07.015Z,64.14
2022-07-26T21:08:34.490Z,62.65
2022-07-26T21:11:01.866Z,62.58
2022-07-26T21:13:29.007Z,61.69
2022-07-26T21:15:56.141Z,61.66
2022-07-26T21:18:23.548Z,63.03
2022-07-26T21:20:50.655Z,60.10
2022-07-26T21:23:18.577Z,63.37
2022-07-26T21:25:47.601Z,63.39
2022-07-26T21:28:14.822Z,61.87
2022-07-26T21:30:41.913Z,66.05
2022-07-26T21:33:09.303Z,66.01
2022-07-26T21:35:36.427Z,67.10
2022-07-26T21:38:03.771Z,66.72
2022-07-26T21:40:31.145Z,64.51
2022-07-26T21:42:58.262Z,65.16
2022-07-26T21:45:25.364Z,67.47
2022-07-26T21:47:54.283Z,63.05
2022-07-26T21:50:21.584Z,64.67
2022-07-26T21:52:48.735Z,65.66
2022-07-26T21:55:18.111Z,63.83
2022-07-26T21:57:45.632Z,64.97
2022-07-26T22:00:13.426Z,64.91
2022-07-26T22:02:40.898Z,65.79
2022-07-26T22:05:26.910Z,67.67
2022-07-26T22:07:54.393Z,67.74
2022-07-26T22:10:22.117Z,67.44
2022-07-26T22:12:49.293Z,68.87
2022-07-26T22:15:16.702Z,68.87
2022-07-26T22:17:43.803Z,68.77
2022-07-26T22:20:11.193Z,67.33
2022-07-26T22:22:38.759Z,67.87
2022-07-26T22:25:06.032Z,68.24
2022-07-26T22:27:33.158Z,68.85
2022-07-26T22:30:00.517Z,69.29
2022-07-26T22:32:27.690Z,69.67
2022-07-26T22:34:54.795Z,67.86
2022-07-26T22:37:22.191Z,67.30
2022-07-26T22:39:49.312Z,68.81
2022-07-26T22:42:16.602Z,69.94
2022-07-26T22:44:44.039Z,68.85
2022-07-26T22:47:11.162Z,67.67
2022-07-26T22:49:38.329Z,66.92
2022-07-26T22:52:05.871Z,66.04
2022-07-26T22:54:32.980Z,66.81
2022-07-26T22:57:00.107Z,66.19
2022-07-26T22:59:27.543Z,66.42
2022-07-26T23:01:54.672Z,66.86
2022-07-26T23:04:21.848Z,70.00
2022-07-26T23:06:49.255Z,67.16
2022-07-26T23:09:16.352Z,66.67
2022-07-26T23:11:43.511Z,66.67
2022-07-26T23:14:11.420Z,66.95
2022-07-26T23:16:38.841Z,66.78
2022-07-26T23:19:06.056Z,65.04
2022-07-26T23:21:33.462Z,66.03
2022-07-26T23:24:00.559Z,65.07
2022-07-26T23:26:27.690Z,68.43
2022-07-26T23:28:55.131Z,69.17
2022-07-26T23:31:22.280Z,70.55
2022-07-26T23:33:50.447Z,69.39
2022-07-26T23:36:24.033Z,68.96
2022-07-26T23:38:51.274Z,70.01
2022-07-26T23:41:19.306Z,70.99
2022-07-26T23:43:46.739Z,71.98
2022-07-26T23:46:13.941Z,71.78
2022-07-26T23:48:41.239Z,71.66
2022-07-26T23:51:08.652Z,70.88
2022-07-26T23:53:35.791Z,69.77
2022-07-26T23:56:02.945Z,69.87
2022-07-26T23:58:30.345Z,69.97
